地図

経路データ

SID SEASON NUMBER BASIN SUBBASIN NAME ISO_TIME NATURE LAT LON WMO_WIND WMO_PRES WMO_AGENCY TRACK_TYPE DIST2LAND LANDFALL IFLAG USA_AGENCY USA_ATCF_ID USA_LAT USA_LON USA_RECORD USA_STATUS USA_WIND USA_PRES USA_SSHS USA_R34_NE USA_R34_SE USA_R34_SW USA_R34_NW USA_R50_NE USA_R50_SE USA_R50_SW USA_R50_NW USA_R64_NE USA_R64_SE USA_R64_SW USA_R64_NW USA_POCI USA_ROCI USA_RMW USA_EYE TOKYO_LAT TOKYO_LON TOKYO_GRADE TOKYO_WIND TOKYO_PRES TOKYO_R50_DIR TOKYO_R50_LONG TOKYO_R50_SHORT TOKYO_R30_DIR TOKYO_R30_LONG TOKYO_R30_SHORT TOKYO_LAND CMA_LAT CMA_LON CMA_CAT CMA_WIND CMA_PRES HKO_LAT HKO_LON HKO_CAT HKO_WIND HKO_PRES NEWDELHI_LAT NEWDELHI_LON NEWDELHI_GRADE NEWDELHI_WIND NEWDELHI_PRES NEWDELHI_CI NEWDELHI_DP NEWDELHI_POCI REUNION_LAT REUNION_LON REUNION_TYPE REUNION_WIND REUNION_PRES REUNION_TNUM REUNION_CI REUNION_RMW REUNION_R34_NE REUNION_R34_SE REUNION_R34_SW REUNION_R34_NW REUNION_R50_NE REUNION_R50_SE REUNION_R50_SW REUNION_R50_NW REUNION_R64_NE REUNION_R64_SE REUNION_R64_SW REUNION_R64_NW BOM_LAT BOM_LON BOM_TYPE BOM_WIND BOM_PRES BOM_TNUM BOM_CI BOM_RMW BOM_R34_NE BOM_R34_SE BOM_R34_SW BOM_R34_NW BOM_R50_NE BOM_R50_SE BOM_R50_SW BOM_R50_NW BOM_R64_NE BOM_R64_SE BOM_R64_SW BOM_R64_NW BOM_ROCI BOM_POCI BOM_EYE BOM_POS_METHOD BOM_PRES_METHOD NADI_LAT NADI_LON NADI_CAT NADI_WIND NADI_PRES WELLINGTON_LAT WELLINGTON_LON WELLINGTON_WIND WELLINGTON_PRES DS824_LAT DS824_LON DS824_STAGE DS824_WIND DS824_PRES TD9636_LAT TD9636_LON TD9636_STAGE TD9636_WIND TD9636_PRES TD9635_LAT TD9635_LON TD9635_WIND TD9635_PRES TD9635_ROCI NEUMANN_LAT NEUMANN_LON NEUMANN_CLASS NEUMANN_WIND NEUMANN_PRES MLC_LAT MLC_LON MLC_CLASS MLC_WIND MLC_PRES USA_GUST BOM_GUST BOM_GUST_PER REUNION_GUST REUNION_GUST_PER USA_SEAHGT USA_SEARAD_NE USA_SEARAD_SE USA_SEARAD_SW USA_SEARAD_NW STORM_SPEED STORM_DIR
1851309N19282 1851 20 NA CS NOT_NAMED 1851-11-04 12:00:00 TS 19.1000 -77.6000 main 78 67 _____________O -1 19.1000 -77.6000 TD 30 2 236
1851309N19282 1851 20 NA CS NOT_NAMED 1851-11-04 15:00:00 TS 19.0375 -77.7025 main 67 67 _____________P -1 19.0375 -77.7025 TD 30 2 242
1851309N19282 1851 20 NA CS NOT_NAMED 1851-11-04 18:00:00 TS 19.0000 -77.8000 main 67 67 _____________O -1 19.0000 -77.8000 TD 30 2 258
1851309N19282 1851 20 NA CS NOT_NAMED 1851-11-04 21:00:00 TS 19.0000 -77.8925 main 67 67 _____________P -1 19.0000 -77.8925 TD 32 2 270
1851309N19282 1851 20 NA CS NOT_NAMED 1851-11-05 00:00:00 TS 19.0000 -78.0000 main 67 67 _____________O -1 19.0000 -78.0000 TS 35 2 260
1851309N19282 1851 20 NA CS NOT_NAMED 1851-11-05 03:00:00 TS 18.9575 -78.1425 main 67 55 _____________P -1 18.9575 -78.1425 TS 37 3 250
1851309N19282 1851 20 NA CS NOT_NAMED 1851-11-05 06:00:00 TS 18.9000 -78.3000 main 55 55 _____________O -1 18.9000 -78.3000 TS 40 3 251
1851309N19282 1851 20 NA CS NOT_NAMED 1851-11-05 09:00:00 TS 18.8575 -78.4575 main 59 49 _____________P -1 18.8575 -78.4575 TS 42 3 250
1851309N19282 1851 20 NA CS NOT_NAMED 1851-11-05 12:00:00 TS 18.8000 -78.6000 main 54 53 _____________O -1 18.8000 -78.6000 TS 45 3 238
1851309N19282 1851 20 NA CS NOT_NAMED 1851-11-05 15:00:00 TS 18.7075 -78.7075 main 53 53 _____________P -1 18.7075 -78.7075 TS 47 3 224
1851309N19282 1851 20 NA CS NOT_NAMED 1851-11-05 18:00:00 TS 18.6000 -78.8000 main 57 57 _____________O -1 18.6000 -78.8000 TS 50 3 222
1851309N19282 1851 20 NA CS NOT_NAMED 1851-11-05 21:00:00 TS 18.5075 -78.9000 main 62 62 _____________P -1 18.5075 -78.9000 TS 52 3 224
1851309N19282 1851 20 NA CS NOT_NAMED 1851-11-06 00:00:00 TS 18.4000 -79.0000 main 67 64 _____________O -1 18.4000 -79.0000 TS 55 3 218
1851309N19282 1851 20 NA CS NOT_NAMED 1851-11-06 03:00:00 TS 18.2575 -79.1075 main 74 73 _____________P -1 18.2575 -79.1075 TS 55 4 212
1851309N19282 1851 20 NA CS NOT_NAMED 1851-11-06 06:00:00 TS 18.1000 -79.2000 main 85 85 _____________O -1 18.1000 -79.2000 TS 55 4 208
1851309N19282 1851 20 NA CS NOT_NAMED 1851-11-06 09:00:00 TS 17.9425 -79.2875 main 100 100 _____________P -1 17.9425 -79.2875 TS 55 3 197
1851309N19282 1851 20 NA CS NOT_NAMED 1851-11-06 12:00:00 TS 17.8000 -79.3000 main 105 101 _____________O -1 17.8000 -79.3000 TS 55 3 157
1851309N19282 1851 20 NA CS NOT_NAMED 1851-11-06 15:00:00 TS 17.6850 -79.1724 main 101 92 _____________P -1 17.6850 -79.1724 TS 55 3 125
1851309N19282 1851 20 NA CS NOT_NAMED 1851-11-06 18:00:00 TS 17.6000 -79.0000 main 92 85 _____________O -1 17.6000 -79.0000 TS 55 3 121
1851309N19282 1851 20 NA CS NOT_NAMED 1851-11-06 21:00:00 TS 17.5275 -78.9000 main 94 89 _____________P -1 17.5275 -78.9000 TS 55 2 118
1851309N19282 1851 20 NA CS NOT_NAMED 1851-11-07 00:00:00 TS 17.5000 -78.8000 main 89 84 _____________O -1 17.5000 -78.8000 TS 55 2 88
1851309N19282 1851 20 NA CS NOT_NAMED 1851-11-07 03:00:00 TS 17.5350 -78.6575 main 84 67 _____________P -1 17.5350 -78.6575 TS 55 3 71
1851309N19282 1851 20 NA CS NOT_NAMED 1851-11-07 06:00:00 TS 17.6000 -78.5000 main 67 67 _____________O -1 17.6000 -78.5000 TS 55 3 71
1851309N19282 1851 20 NA CS NOT_NAMED 1851-11-07 09:00:00 TS 17.6425 -78.3275 main 67 54 _____________P -1 17.6425 -78.3275 TS 55 3 71
1851309N19282 1851 20 NA CS NOT_NAMED 1851-11-07 12:00:00 TS 17.7000 -78.2000 main 54 44 _____________O -1 17.7000 -78.2000 TS 55 2 46
1851309N19282 1851 20 NA CS NOT_NAMED 1851-11-07 15:00:00 TS 17.7850 -78.1700 main 44 33 _____________P -1 17.7850 -78.1700 TS 55 2 8
1851309N19282 1851 20 NA CS NOT_NAMED 1851-11-07 18:00:00 TS 17.9000 -78.2000 main 33 22 _____________O -1 17.9000 -78.2000 TS 55 3 343
1851309N19282 1851 20 NA CS NOT_NAMED 1851-11-07 21:00:00 TS 18.0500 -78.2500 main 11 0 _____________P -1 18.0500 -78.2500 TS 55 3 343
1851309N19282 1851 20 NA CS NOT_NAMED 1851-11-08 00:00:00 TS 18.2000 -78.3000 main 0 0 _____________O -1 18.2000 -78.3000 TS 55 3 347
1851309N19282 1851 20 NA CS NOT_NAMED 1851-11-08 03:00:00 TS 18.3000 -78.3075 main 0 0 _____________P -1 18.3000 -78.3075 TS 55 2 8
1851309N19282 1851 20 NA CS NOT_NAMED 1851-11-08 06:00:00 TS 18.4000 -78.3000 main 0 0 _____________O -1 18.4000 -78.3000 TS 55 3 2
1851309N19282 1851 20 NA CS NOT_NAMED 1851-11-08 09:00:00 TS 18.5500 -78.2925 main 22 11 _____________P -1 18.5500 -78.2925 TS 55 3 0
1851309N19282 1851 20 NA CS NOT_NAMED 1851-11-08 12:00:00 TS 18.7000 -78.3000 main 33 33 _____________O -1 18.7000 -78.3000 TS 55 3 351
1851309N19282 1851 20 NA CS NOT_NAMED 1851-11-08 15:00:00 TS 18.8000 -78.3425 main 44 44 _____________P -1 18.8000 -78.3425 TS 55 2 333
1851309N19282 1851 20 NA CS NOT_NAMED 1851-11-08 18:00:00 TS 18.9000 -78.4000 main 56 56 _____________O -1 18.9000 -78.4000 TS 55 3 336
1851309N19282 1851 20 NA CS NOT_NAMED 1851-11-08 21:00:00 TS 19.0350 -78.4500 main 70 70 _____________P -1 19.0350 -78.4500 TS 55 3 343
1851309N19282 1851 20 NA CS NOT_NAMED 1851-11-09 00:00:00 TS 19.2000 -78.5000 main 91 91 _____________O -1 19.2000 -78.5000 TS 55 4 344
1851309N19282 1851 20 NA CS NOT_NAMED 1851-11-09 03:00:00 TS 19.3925 -78.5500 main 94 96 _____________P -1 19.3925 -78.5500 TS 55 4 347
1851309N19282 1851 20 NA CS NOT_NAMED 1851-11-09 06:00:00 TS 19.6000 -78.6000 main 96 94 _____________O -1 19.6000 -78.6000 TS 55 4 346
1851309N19282 1851 20 NA CS NOT_NAMED 1851-11-09 09:00:00 TS 19.8150 -78.6650 main 104 104 _____________P -1 19.8150 -78.6650 TS 55 4 347
1851309N19282 1851 20 NA CS NOT_NAMED 1851-11-09 12:00:00 TS 20.0000 -78.7000 main 106 98 _____________O -1 20.0000 -78.7000 TS 55 3 0
1851309N19282 1851 20 NA CS NOT_NAMED 1851-11-09 15:00:00 TS 20.1225 -78.6725 main 98 83 _____________P -1 20.1225 -78.6725 TS 52 2 27
1851309N19282 1851 20 NA CS NOT_NAMED 1851-11-09 18:00:00 TS 20.2000 -78.6000 main 83 76 _____________O -1 20.2000 -78.6000 TS 50 2 52
1851309N19282 1851 20 NA CS NOT_NAMED 1851-11-09 21:00:00 TS 20.2500 -78.5000 main 68 61 _____________P -1 20.2500 -78.5000 TS 47 2 61
1851309N19282 1851 20 NA CS NOT_NAMED 1851-11-10 00:00:00 TS 20.3000 -78.4000 main 61 53 _____________O -1 20.3000 -78.4000 TS 45 2 45
1851309N19282 1851 20 NA CS NOT_NAMED 1851-11-10 03:00:00 TS 20.3925 -78.3500 main 45 38 _____________P -1 20.3925 -78.3500 TS 45 2 27
1851309N19282 1851 20 NA CS NOT_NAMED 1851-11-10 06:00:00 TS 20.5000 -78.3000 main 38 23 _____________O -1 20.5000 -78.3000 TS 45 2 35
1851309N19282 1851 20 NA CS NOT_NAMED 1851-11-10 09:00:00 TS 20.5850 -78.2075 main 23 10 _____________P -1 20.5850 -78.2075 TS 45 3 43
1851309N19282 1851 20 NA CS NOT_NAMED 1851-11-10 12:00:00 TS 20.7000 -78.1000 main 10 0 _____________O -1 20.7000 -78.1000 TS 45 3 33
1851309N19282 1851 20 NA NA NOT_NAMED 1851-11-10 15:00:00 TS 20.8775 -78.0075 main 0 0 _____________P -1 20.8775 -78.0075 TS 45 4 25
1851309N19282 1851 20 NA NA NOT_NAMED 1851-11-10 18:00:00 TS 21.1000 -77.9000 main 0 0 _____________O -1 21.1000 -77.9000 TS 45 5 26
1851309N19282 1851 20 NA NA NOT_NAMED 1851-11-10 21:00:00 TS 21.3500 -77.7575 main 0 0 _____________P -1 21.3500 -77.7575 TS 42 6 29
1851309N19282 1851 20 NA NA NOT_NAMED 1851-11-11 00:00:00 TS 21.6000 -77.6000 main 0 0 _____________O -1 21.6000 -77.6000 TS 40 5 32
1851309N19282 1851 20 NA NA NOT_NAMED 1851-11-11 03:00:00 TS 21.8000 -77.4499 main 15 15 _____________P -1 21.8000 -77.4499 TS 40 5 35
1851309N19282 1851 20 NA NA NOT_NAMED 1851-11-11 06:00:00 TS 22.0000 -77.3000 main 33 33 _____________O -1 22.0000 -77.3000 TS 40 5 32
1851309N19282 1851 20 NA NA NOT_NAMED 1851-11-11 09:00:00 TS 22.2425 -77.1500 main 55 55 _____________P -1 22.2425 -77.1500 TS 37 6 29
1851309N19282 1851 20 NA NA NOT_NAMED 1851-11-11 12:00:00 TS 22.5000 -77.0000 main 90 90 _____________O -1 22.5000 -77.0000 TS 35 6 28
1851309N19282 1851 20 NA NA NOT_NAMED 1851-11-11 15:00:00 TS 22.7575 -76.8574 main 124 124 _____________P -1 22.7575 -76.8574 TS 35 6 29
1851309N19282 1851 20 NA NA NOT_NAMED 1851-11-11 18:00:00 TS 23.0000 -76.7000 main 151 151 _____________O -1 23.0000 -76.7000 TS 35 5 36
1851309N19282 1851 20 NA NA NOT_NAMED 1851-11-11 21:00:00 TS 23.2000 -76.5074 main 178 178 _____________P -1 23.2000 -76.5074 TS 35 5 42
1851309N19282 1851 20 NA NA NOT_NAMED 1851-11-12 00:00:00 TS 23.4000 -76.3000 main 187 180 _____________O -1 23.4000 -76.3000 TS 35 6 40
1851309N19282 1851 20 NA NA NOT_NAMED 1851-11-12 03:00:00 TS 23.6500 -76.1000 main 190 185 _____________P -1 23.6500 -76.1000 TS 35 6 36
1851309N19282 1851 20 NA NA NOT_NAMED 1851-11-12 06:00:00 TS 23.9000 -75.9000 main 194 190 _____________O -1 23.9000 -75.9000 TS 35 5 35
1851309N19282 1851 20 NA NA NOT_NAMED 1851-11-12 09:00:00 TS 24.0844 -75.7742 main 197 197 _____________P -1 24.0844 -75.7742 TS 35 5 42
1851309N19282 1851 20 NA NA NOT_NAMED 1851-11-12 12:00:00 TS 24.3000 -75.5000 main 223 223 _____________O -1 24.3000 -75.5000 TS 35 9 55
1851309N19282 1851 20 NA NA NOT_NAMED 1851-11-12 15:00:00 TS 24.6271 -74.9274 main 283 283 _____________P -1 24.6271 -74.9274 TS 37 15 61
1851309N19282 1851 20 NA NA NOT_NAMED 1851-11-12 18:00:00 TS 25.0000 -74.1000 main 367 367 _____________O -1 25.0000 -74.1000 TS 40 18 65
1851309N19282 1851 20 NA NA NOT_NAMED 1851-11-12 21:00:00 TS 25.3954 -73.0960 main 469 469 _____________P -1 25.3954 -73.0960 TS 40 20 70
1851309N19282 1851 20 NA NA NOT_NAMED 1851-11-13 00:00:00 TS 25.7000 -72.0000 main 513 513 _____________O -1 25.7000 -72.0000 TS 40 20 78
1851309N19282 1851 20 NA NA NOT_NAMED 1851-11-13 03:00:00 TS 25.8023 -70.9540 main 553 553 _____________P -1 25.8023 -70.9540 TS 40 18 87
1851309N19282 1851 20 NA NA NOT_NAMED 1851-11-13 06:00:00 TS 25.8000 -70.0000 main 598 598 _____________O -1 25.8000 -70.0000 TS 40 16 89
1851309N19282 1851 20 NA NA NOT_NAMED 1851-11-13 09:00:00 TS 25.8212 -69.2277 main 643 643 _____________P -1 25.8212 -69.2277 TS 40 14 90
1851309N19282 1851 20 NA NA NOT_NAMED 1851-11-13 12:00:00 TS 25.8000 -68.5000 main 688 688 _____________O -1 25.8000 -68.5000 TS 40 14 95
1851309N19282 1851 20 NA NA NOT_NAMED 1851-11-13 15:00:00 TS 25.7071 -67.6721 main 721 721 _____________P -1 25.7071 -67.6721 TS 40 15 97
1851309N19282 1851 20 NA NA NOT_NAMED 1851-11-13 18:00:00 TS 25.6000 -66.8000 main 746 746 _____________O -1 25.6000 -66.8000 TS 40 16 96
1851309N19282 1851 20 NA NA NOT_NAMED 1851-11-13 21:00:00 TS 25.5421 -65.9077 main 776 776 _____________P -1 25.5421 -65.9077 TS 40 16 94
1851309N19282 1851 20 NA NA NOT_NAMED 1851-11-14 00:00:00 TS 25.5000 -65.0000 main 796 796 _____________O -1 25.5000 -65.0000 TS 40 16 93
1851309N19282 1851 20 NA NA NOT_NAMED 1851-11-14 03:00:00 TS 25.4496 -64.0926 main 797 797 _____________P -1 25.4496 -64.0926 TS 40 16 94
1851309N19282 1851 20 NA NA NOT_NAMED 1851-11-14 06:00:00 TS 25.4000 -63.2000 main 820 820 _____________O -1 25.4000 -63.2000 TS 40 16 94
1851309N19282 1851 20 NA NA NOT_NAMED 1851-11-14 09:00:00 TS 25.3418 -62.3499 main 843 843 _____________P -1 25.3418 -62.3499 TS 40 15 94
1851309N19282 1851 20 NA NA NOT_NAMED 1851-11-14 12:00:00 TS 25.3000 -61.5000 main 879 879 _____________O -1 25.3000 -61.5000 TS 40 16 92
1851309N19282 1851 20 NA NA NOT_NAMED 1851-11-14 15:00:00 TS 25.2922 -60.6002 main 927 927 _____________P -1 25.2922 -60.6002 TS 42 16 90
1851309N19282 1851 20 NA NA NOT_NAMED 1851-11-14 18:00:00 TS 25.3000 -59.7000 main 982 982 _____________O -1 25.3000 -59.7000 TS 45 16 90
1851309N19282 1851 20 NA NA NOT_NAMED 1851-11-14 21:00:00 TS 25.2919 -58.8424 main 1042 1042 _____________P -1 25.2919 -58.8424 TS 45 15 90
1851309N19282 1851 20 NA NA NOT_NAMED 1851-11-15 00:00:00 TS 25.3000 -58.0000 main 1099 1099 _____________O -1 25.3000 -58.0000 TS 45 15 88
1851309N19282 1851 20 NA NA NOT_NAMED 1851-11-15 03:00:00 TS 25.3494 -57.1577 main 1159 1159 _____________P -1 25.3494 -57.1577 TS 45 15 86
1851309N19282 1851 20 NA NA NOT_NAMED 1851-11-15 06:00:00 TS 25.4000 -56.3000 main 1237 1237 _____________O -1 25.4000 -56.3000 TS 45 16 88
1851309N19282 1851 20 NA NA NOT_NAMED 1851-11-15 09:00:00 TS 25.3922 -55.3995 main 1310 1310 _____________P -1 25.3922 -55.3995 TS 45 16 90
1851309N19282 1851 20 NA NA NOT_NAMED 1851-11-15 12:00:00 TS 25.4000 -54.5000 main 1385 1385 _____________O -1 25.4000 -54.5000 TS 45 16 86
1851309N19282 1851 20 NA NA NOT_NAMED 1851-11-15 15:00:00 TS 25.4917 -53.6503 main 1460 1460 _____________P -1 25.4917 -53.6503 TS 45 15 83
1851309N19282 1851 20 NA NA NOT_NAMED 1851-11-15 18:00:00 TS 25.6000 -52.8000 main 1543 1543 _____________O -1 25.6000 -52.8000 TS 45 16 84
1851309N19282 1851 20 NA NA NOT_NAMED 1851-11-15 21:00:00 TS 25.6572 -51.8998 main 1628 1628 _____________P -1 25.6572 -51.8998 TS 45 16 86
1851309N19282 1851 20 NA NA NOT_NAMED 1851-11-16 00:00:00 TS 25.7000 -51.0000 main 1709 1709 _____________O -1 25.7000 -51.0000 TS 45 16 87
1851309N19282 1851 20 NA NA NOT_NAMED 1851-11-16 03:00:00 TS 25.7492 -50.1499 main 1791 1791 _____________P -1 25.7492 -50.1499 TS 45 15 86
1851309N19282 1851 20 NA NA NOT_NAMED 1851-11-16 06:00:00 TS 25.8000 -49.3000 main 1869 1869 _____________O -1 25.8000 -49.3000 TS 45 16 87
1851309N19282 1851 20 NA NA NOT_NAMED 1851-11-16 09:00:00 TS 25.8197 -48.3993 main 1952 1952 _____________P -1 25.8197 -48.3993 TS 45 16 86
1851309N19282 1851 20 NA NA NOT_NAMED 1851-11-16 12:00:00 TS 25.9000 -47.5000 main 2040 2040 _____________O -1 25.9000 -47.5000 TS 45 16 79
1851309N19282 1851 20 NA NA NOT_NAMED 1851-11-16 15:00:00 TS 26.1267 -46.6504 main 2123 2123 _____________P -1 26.1267 -46.6504 TS 45 16 72
1851309N19282 1851 20 NA NA NOT_NAMED 1851-11-16 18:00:00 TS 26.4000 -45.8000 main 2218 2218 _____________O -1 26.4000 -45.8000 TS 45 16 73
1851309N19282 1851 20 NA NA NOT_NAMED 1851-11-16 21:00:00 TS 26.5997 -44.8994 main 2310 2310 _____________P -1 26.5997 -44.8994 TS 45 17 76
1851309N19282 1851 20 NA NA NOT_NAMED 1851-11-17 00:00:00 TS 26.8000 -44.0000 main 2348 2343 _____________O -1 26.8000 -44.0000 TS 45 16 74
1851309N19282 1851 20 NA NA NOT_NAMED 1851-11-17 03:00:00 TS 27.0492 -43.1499 main 2355 2344 _____________P -1 27.0492 -43.1499 TS 45 16 72
1851309N19282 1851 20 NA NA NOT_NAMED 1851-11-17 06:00:00 TS 27.3000 -42.3000 main 2351 2351 _____________O -1 27.3000 -42.3000 TS 45 16 75
1851309N19282 1851 20 NA NA NOT_NAMED 1851-11-17 09:00:00 TS 27.4852 -41.3693 main 2363 2321 _____________P -1 27.4852 -41.3693 TS 45 16 76
1851309N19282 1851 20 NA NA NOT_NAMED 1851-11-17 12:00:00 TS 27.7000 -40.5000 main 2321 2249 _____________O -1 27.7000 -40.5000 TS 45 15 69
1851309N19282 1851 20 NA NA NOT_NAMED 1851-11-17 15:00:00 TS 28.0267 -39.8048 main 2249 2186 _____________P -1 28.0267 -39.8048 TS 45 13 59
1851309N19282 1851 20 NA NA NOT_NAMED 1851-11-17 18:00:00 TS 28.4000 -39.2000 main 2186 2125 _____________O -1 28.4000 -39.2000 TS 45 13 56
1851309N19282 1851 20 NA NA NOT_NAMED 1851-11-17 21:00:00 TS 28.7495 -38.5994 main 2125 2064 _____________P -1 28.7495 -38.5994 TS 45 13 56
1851309N19282 1851 20 NA NA NOT_NAMED 1851-11-18 00:00:00 TS 29.1000 -38.0000 main 2064 2004 _____________O -1 29.1000 -38.0000 TS 45 13 57
1851309N19282 1851 20 NA NA NOT_NAMED 1851-11-18 03:00:00 TS 29.4499 -37.3497 main 1995 1936 _____________P -1 29.4499 -37.3497 TS 42 13 58
1851309N19282 1851 20 NA NA NOT_NAMED 1851-11-18 06:00:00 TS 29.8000 -36.7000 main 1936 1879 _____________O -1 29.8000 -36.7000 TS 40 13 59
1851309N19282 1851 20 NA NA NOT_NAMED 1851-11-18 09:00:00 TS 30.1045 -36.0985 main 1879 1823 _____________P -1 30.1045 -36.0985 TS 40 13 56
1851309N19282 1851 20 NA NA NOT_NAMED 1851-11-18 12:00:00 TS 30.5000 -35.5000 main 1823 1770 _____________O -1 30.5000 -35.5000 TS 40 15 47
1851309N19282 1851 20 NA NA NOT_NAMED 1851-11-18 15:00:00 TS 31.1124 -34.8504 main 1771 1715 _____________P -1 31.1124 -34.8504 TS 40 17 41
1851309N19282 1851 20 NA NA NOT_NAMED 1851-11-18 18:00:00 TS 31.8000 -34.2000 main 1715 1671 _____________O -1 31.8000 -34.2000 TS 40 17 40
1851309N19282 1851 20 NA NA NOT_NAMED 1851-11-18 21:00:00 TS 32.3995 -33.5986 main 1671 1631 _____________P -1 32.3995 -33.5986 TS 40 16 40
1851309N19282 1851 20 NA NA NOT_NAMED 1851-11-19 00:00:00 TS 33.0000 -33.0000 main 1631 1593 _____________O -1 33.0000 -33.0000 TS 40 16 41
1851309N19282 1851 20 NA NA NOT_NAMED 1851-11-19 03:00:00 TS 33.6503 -32.3204 main 1591 1561 _____________P -1 33.6503 -32.3204 TS 37 17 40
1851309N19282 1851 20 NA NA NOT_NAMED 1851-11-19 06:00:00 ET 34.3000 -31.7000 main 1561 1548 _____________O -1 34.3000 -31.7000 EX 35 15 35
1851309N19282 1851 20 NA NA NOT_NAMED 1851-11-19 09:00:00 ET 34.9123 -31.2476 main 1545 1543 _____________P -1 34.9123 -31.2476 EX 35 14 29
1851309N19282 1851 20 NA NA NOT_NAMED 1851-11-19 12:00:00 ET 35.5000 -30.9000 main 1550 _____________O -1 35.5000 -30.9000 EX 35 13 26

IBTrACS Databaseについて

本データベースは、米国NOAAが公開する1842年以降の世界の熱帯低気圧のベストトラックデータアーカイブInternational Best Track Archive for Climate Stewardship (IBTrACS)を、ウェブで閲覧しやすい形式に変換したものです。

最終更新日:2021-11-26